Terminal Aerodrome Forecast
Issued by NWS

Home | Current Version | Previous Version | Text Only | Print | Product List | Glossary On
Versions: 1 2 3 4 5 6 7 8 9 10 11 12 13
000
FTUS42 KMHX 061740
TAFOAJ
TAF
KOAJ 061740Z 0618/0718 10008KT P6SM BKN300
     FM070900 02005KT P6SM BKN200
     FM071200 05012G20KT P6SM SHRA SCT015 BKN030 OVC100
      AMD LTD TO CLD VIS AND WIND=

USA.gov is the U.S. government's official web portal to all federal, state and local government web resources and services.